Insider Stock Trading History of Andreeff Dane


The following table details the trading activities (stock purchases, stock sales, and stock option exercises) reported to the Securities and Exchange Commission (SEC) by insider Andreeff Dane since year 2005. The trader's CIK number is 1201810. At the time of this reporting, Andreeff Dane is the 10% Owner of Benihana Inc . (stock ticker symbol BNHNA). See this page for all insider trading activities at Benihana Inc .

Note that in the past ANDREEFF DANE also reported insider trading activities as an insider of the following companies:
Stock purchases, sales, and option exercises reported by insider Andreeff Dane since 2005.
  Trade Date   Symbol Company Name (Issuer) Trade Type     Shares       Price ($)   Value ($)
2008-07-31 BNHN Benihana Inc Buy 26,395 6.52 172,069
2008-07-31 ENDO Endocare Inc Buy 40,776 3.48 141,737
2008-07-18 ENDO Endocare Inc Sale 5,275 3.91 20,630
2008-07-18 BNHN Benihana Inc Buy 63 5.92 372
2008-07-18 BNHN Benihana Inc Sale 46 5.92 272
2008-06-30 BNHN Benihana Inc Buy 5,241 6.61 34,627
2008-06-30 ENDO Endocare Inc Buy 7,309 4.98 36,369
2008-06-23 BNHN Benihana Inc Sale 2,117 6.94 14,685
2008-06-23 ENDO Endocare Inc Sale 2,437 5.18 12,630
2008-06-13 BNHN Benihana Inc Buy 3,203 7.00 22,421
2008-06-13 BNHN Benihana Inc Sale 3,203 7.00 22,421
2008-04-30 BNHN Benihana Inc Buy 17,310 10.55 182,568
2008-04-30 ENDO Endocare Inc Buy 49,069 6.00 294,463
2008-01-09 RDEA Intrabiotics Pharmaceuticals Inc /de Buy 277 15.94 4,415
2007-12-31 RDEA Intrabiotics Pharmaceuticals Inc /de Buy 4,200 15.18 63,739
2007-12-26 RDEA Intrabiotics Pharmaceuticals Inc /de Buy 8,100 15.18 122,917
2007-11-27 KHKH Kitty Hawk Inc Sale 5,937,063 .00 5,937
2007-11-30 RDEA Intrabiotics Pharmaceuticals Inc /de Buy 1,594 13.20 21,037
2007-11-28 RDEA Intrabiotics Pharmaceuticals Inc /de Buy 17,000 11.16 189,737
2007-07-02 GOK Geokinetics Inc Sale 2,141 30.86 66,071
2007-06-29 GOK Geokinetics Inc Buy 53,750 31.01 1,666,680
2007-06-29 GOK Geokinetics Inc Buy 40,000 31.01 1,240,320
2007-05-31 GOK Geokinetics Inc Buy 62,227 28.29 1,760,215

Insider trading activities including stock purchases, stock sales, and option exercises listed in the above table cannot be completely guaranteed as to their accuracy. For more information regarding the trades made by Andreeff Dane (10% Owner of Benihana Inc at the time of this reporting) see the Securities and Exchange Commission (SEC) website.